createdAt,value
2022-10-17T05:25:09.664Z,65.60
2022-10-17T05:35:11.070Z,60.50
2022-10-17T05:45:12.476Z,57.70
2022-10-17T05:55:13.856Z,56.30
2022-10-17T06:05:15.223Z,56.30
2022-10-17T06:15:16.646Z,55.40
2022-10-17T06:25:18.032Z,63.40
2022-10-17T06:35:19.400Z,69.70
2022-10-17T06:45:20.772Z,69.10
2022-10-17T06:55:23.268Z,70.50
2022-10-17T07:05:24.860Z,60.80
2022-10-17T07:15:26.242Z,55.10
2022-10-17T07:25:27.633Z,55.30
2022-10-17T07:35:29.002Z,53.00
2022-10-17T07:45:30.392Z,51.30
2022-10-17T07:55:31.783Z,51.00
2022-10-17T08:05:33.162Z,51.30
2022-10-17T08:15:34.546Z,50.90
2022-10-17T08:25:36.025Z,50.40
2022-10-17T08:35:37.422Z,50.50
2022-10-17T08:45:38.807Z,50.60
2022-10-17T08:55:42.952Z,50.60
2022-10-17T09:05:46.822Z,50.80
2022-10-17T09:15:48.227Z,49.70
2022-10-17T09:25:49.602Z,50.60
2022-10-17T09:35:50.979Z,50.60
2022-10-17T09:45:52.351Z,50.90
2022-10-17T09:55:53.727Z,50.20
2022-10-17T10:05:55.149Z,50.70
2022-10-17T10:15:56.557Z,50.80
2022-10-17T10:25:57.963Z,50.60
2022-10-17T10:35:59.376Z,50.80
2022-10-17T10:46:00.783Z,50.10
2022-10-17T10:56:02.185Z,50.60
2022-10-17T11:06:03.560Z,50.20
2022-10-17T11:16:04.942Z,50.60
2022-10-17T11:26:06.330Z,50.00
2022-10-17T11:36:07.738Z,49.40
2022-10-17T11:46:09.112Z,49.10
2022-10-17T11:56:10.492Z,49.00
2022-10-17T12:06:11.866Z,49.70
2022-10-17T12:16:16.810Z,48.70
2022-10-17T12:26:18.930Z,48.70
2022-10-17T12:36:20.304Z,48.30
2022-10-17T12:46:21.693Z,49.10
2022-10-17T12:56:23.117Z,48.70
2022-10-17T13:06:24.515Z,46.60
2022-10-17T13:16:25.891Z,47.70
2022-10-17T13:26:27.288Z,47.50
2022-10-17T13:36:28.659Z,48.20
2022-10-17T13:46:38.016Z,49.10
2022-10-17T13:56:40.264Z,49.00
2022-10-17T14:06:41.634Z,48.90
2022-10-17T14:16:43.002Z,48.80
2022-10-17T14:26:44.398Z,49.30
2022-10-17T14:36:45.779Z,49.00
2022-10-17T14:46:50.447Z,49.30
2022-10-17T14:56:52.435Z,49.20
2022-10-17T15:06:53.834Z,49.10
2022-10-17T15:16:55.202Z,49.20
2022-10-17T15:26:56.660Z,49.40
2022-10-17T15:36:58.102Z,49.90
2022-10-17T15:46:59.487Z,49.10
2022-10-17T15:57:00.871Z,49.10
2022-10-17T16:07:02.259Z,48.90
2022-10-17T16:17:03.645Z,48.90
2022-10-17T16:27:05.038Z,48.80
2022-10-17T16:37:06.426Z,49.60
2022-10-17T16:47:07.803Z,50.40
2022-10-17T16:57:09.256Z,51.70
2022-10-17T17:07:10.708Z,52.70
